sensor_id;sensor_type;location;lat;lon;timestamp;pressure;altitude;pressure_sealevel;temperature;humidity
6599;BME280;3335;43.198;27.918;2023-04-04T00:02:20;149730.84;;;9.88;100.00
6599;BME280;3335;43.198;27.918;2023-04-04T00:04:47;149620.97;;;9.43;100.00
6599;BME280;3335;43.198;27.918;2023-04-04T00:07:13;149732.09;;;9.88;100.00
6599;BME280;3335;43.198;27.918;2023-04-04T00:09:40;149733.28;;;9.89;100.00
6599;BME280;3335;43.198;27.918;2023-04-04T00:12:09;149747.03;;;9.94;100.00
6599;BME280;3335;43.198;27.918;2023-04-04T00:14:36;149744.53;;;9.93;100.00
6599;BME280;3335;43.198;27.918;2023-04-04T00:17:03;149735.78;;;9.90;100.00
6599;BME280;3335;43.198;27.918;2023-04-04T00:19:30;149753.31;;;9.97;100.00
6599;BME280;3335;43.198;27.918;2023-04-04T00:21:56;149738.31;;;9.91;100.00
6599;BME280;3335;43.198;27.918;2023-04-04T00:24:23;149745.78;;;9.94;100.00
6599;BME280;3335;43.198;27.918;2023-04-04T00:26:51;149753.31;;;9.97;100.00
6599;BME280;3335;43.198;27.918;2023-04-04T00:29:19;149762.03;;;10.00;100.00
6599;BME280;3335;43.198;27.918;2023-04-04T00:31:46;149772.00;;;10.04;100.00
6599;BME280;3335;43.198;27.918;2023-04-04T00:34:13;149765.78;;;10.02;100.00
6599;BME280;3335;43.198;27.918;2023-04-04T00:36:40;149765.78;;;10.02;100.00
6599;BME280;3335;43.198;27.918;2023-04-04T00:39:07;149763.28;;;10.01;100.00
6599;BME280;3335;43.198;27.918;2023-04-04T00:41:34;149760.78;;;10.00;100.00
6599;BME280;3335;43.198;27.918;2023-04-04T00:44:02;149764.53;;;10.01;100.00
6599;BME280;3335;43.198;27.918;2023-04-04T00:46:30;149774.53;;;10.05;100.00
6599;BME280;3335;43.198;27.918;2023-04-04T00:48:57;149772.00;;;10.04;100.00
6599;BME280;3335;43.198;27.918;2023-04-04T00:51:24;149778.28;;;10.07;100.00
6599;BME280;3335;43.198;27.918;2023-04-04T00:53:52;149778.28;;;10.07;100.00
6599;BME280;3335;43.198;27.918;2023-04-04T00:56:19;149760.78;;;10.00;100.00
6599;BME280;3335;43.198;27.918;2023-04-04T00:58:47;149760.78;;;10.00;100.00
6599;BME280;3335;43.198;27.918;2023-04-04T01:01:15;149784.50;;;10.09;100.00
6599;BME280;3335;43.198;27.918;2023-04-04T01:03:43;149748.28;;;9.95;100.00
6599;BME280;3335;43.198;27.918;2023-04-04T01:06:10;149778.28;;;10.07;100.00
6599;BME280;3335;43.198;27.918;2023-04-04T01:08:37;149787.00;;;10.10;100.00
6599;BME280;3335;43.198;27.918;2023-04-04T01:11:05;149788.25;;;10.11;100.00
6599;BME280;3335;43.198;27.918;2023-04-04T01:13:32;149790.78;;;10.12;100.00
6599;BME280;3335;43.198;27.918;2023-04-04T01:16:00;149812.03;;;10.21;100.00
6599;BME280;3335;43.198;27.918;2023-04-04T01:18:27;149808.28;;;10.19;100.00
6599;BME280;3335;43.198;27.918;2023-04-04T01:21:00;149809.53;;;10.20;100.00
6599;BME280;3335;43.198;27.918;2023-04-04T01:23:44;149803.25;;;10.17;100.00
6599;BME280;3335;43.198;27.918;2023-04-04T01:26:14;149810.78;;;10.20;100.00
6599;BME280;3335;43.198;27.918;2023-04-04T01:28:41;149805.78;;;10.18;100.00
6599;BME280;3335;43.198;27.918;2023-04-04T01:31:12;149793.22;;;10.13;100.00
6599;BME280;3335;43.198;27.918;2023-04-04T01:33:44;149798.25;;;10.15;100.00
6599;BME280;3335;43.198;27.918;2023-04-04T01:36:17;149810.78;;;10.20;100.00
6599;BME280;3335;43.198;27.918;2023-04-04T01:38:52;149798.25;;;10.15;100.00
6599;BME280;3335;43.198;27.918;2023-04-04T01:41:21;149793.22;;;10.13;100.00
6599;BME280;3335;43.198;27.918;2023-04-04T01:43:49;149789.53;;;10.12;100.00
6599;BME280;3335;43.198;27.918;2023-04-04T01:46:17;149783.25;;;10.09;100.00
6599;BME280;3335;43.198;27.918;2023-04-04T01:48:44;149790.78;;;10.12;100.00
6599;BME280;3335;43.198;27.918;2023-04-04T01:51:12;149783.25;;;10.09;100.00
6599;BME280;3335;43.198;27.918;2023-04-04T01:53:39;149785.75;;;10.10;100.00
6599;BME280;3335;43.198;27.918;2023-04-04T01:56:07;149797.00;;;10.15;100.00
6599;BME280;3335;43.198;27.918;2023-04-04T01:58:35;149808.28;;;10.19;100.00
6599;BME280;3335;43.198;27.918;2023-04-04T02:01:02;149805.78;;;10.18;100.00
6599;BME280;3335;43.198;27.918;2023-04-04T02:03:29;149808.28;;;10.19;100.00
6599;BME280;3335;43.198;27.918;2023-04-04T02:05:56;149817.00;;;10.23;100.00
6599;BME280;3335;43.198;27.918;2023-04-04T02:08:23;149810.78;;;10.20;100.00
6599;BME280;3335;43.198;27.918;2023-04-04T02:10:49;149808.28;;;10.19;100.00
6599;BME280;3335;43.198;27.918;2023-04-04T02:13:16;149805.78;;;10.18;100.00
6599;BME280;3335;43.198;27.918;2023-04-04T02:15:45;149823.28;;;10.25;100.00
6599;BME280;3335;43.198;27.918;2023-04-04T02:18:14;149838.22;;;10.31;100.00
6599;BME280;3335;43.198;27.918;2023-04-04T02:20:41;149838.22;;;10.31;100.00
6599;BME280;3335;43.198;27.918;2023-04-04T02:23:07;149854.47;;;10.38;100.00
6599;BME280;3335;43.198;27.918;2023-04-04T02:25:34;149848.25;;;10.35;100.00
6599;BME280;3335;43.198;27.918;2023-04-04T02:28:01;149853.22;;;10.37;100.00
6599;BME280;3335;43.198;27.918;2023-04-04T02:30:28;149868.22;;;10.43;100.00
6599;BME280;3335;43.198;27.918;2023-04-04T02:32:58;149880.72;;;10.48;100.00
6599;BME280;3335;43.198;27.918;2023-04-04T02:35:25;149885.69;;;10.50;100.00
6599;BME280;3335;43.198;27.918;2023-04-04T02:37:52;149903.22;;;10.58;100.00
6599;BME280;3335;43.198;27.918;2023-04-04T02:40:18;149905.72;;;10.59;100.00
6599;BME280;3335;43.198;27.918;2023-04-04T02:42:45;149905.72;;;10.59;100.00
6599;BME280;3335;43.198;27.918;2023-04-04T02:45:12;149916.97;;;10.63;100.00
6599;BME280;3335;43.198;27.918;2023-04-04T02:47:40;149913.19;;;10.62;100.00
6599;BME280;3335;43.198;27.918;2023-04-04T02:50:09;149898.19;;;10.56;100.00
6599;BME280;3335;43.198;27.918;2023-04-04T02:52:37;149899.44;;;10.56;100.00
6599;BME280;3335;43.198;27.918;2023-04-04T02:55:05;149918.22;;;10.64;100.00
6599;BME280;3335;43.198;27.918;2023-04-04T02:57:33;149935.69;;;10.71;100.00
6599;BME280;3335;43.198;27.918;2023-04-04T02:59:59;149934.44;;;10.70;100.00
6599;BME280;3335;43.198;27.918;2023-04-04T03:02:28;149939.44;;;10.72;100.00
6599;BME280;3335;43.198;27.918;2023-04-04T03:04:55;149950.69;;;10.77;100.00
6599;BME280;3335;43.198;27.918;2023-04-04T03:07:23;149954.44;;;10.78;100.00
6599;BME280;3335;43.198;27.918;2023-04-04T03:09:50;149955.66;;;10.79;100.00
6599;BME280;3335;43.198;27.918;2023-04-04T03:12:19;149958.16;;;10.80;100.00
6599;BME280;3335;43.198;27.918;2023-04-04T03:14:46;149961.94;;;10.81;100.00
6599;BME280;3335;43.198;27.918;2023-04-04T03:17:13;149970.66;;;10.85;100.00
6599;BME280;3335;43.198;27.918;2023-04-04T03:19:42;149971.91;;;10.85;100.00
6599;BME280;3335;43.198;27.918;2023-04-04T03:22:09;149973.16;;;10.86;100.00
6599;BME280;3335;43.198;27.918;2023-04-04T03:24:37;149973.16;;;10.86;100.00
6599;BME280;3335;43.198;27.918;2023-04-04T03:27:05;149984.41;;;10.90;100.00
6599;BME280;3335;43.198;27.918;2023-04-04T03:29:32;149994.41;;;10.94;100.00
6599;BME280;3335;43.198;27.918;2023-04-04T03:31:59;149978.19;;;10.88;100.00
6599;BME280;3335;43.198;27.918;2023-04-04T03:34:26;149995.66;;;10.95;100.00
6599;BME280;3335;43.198;27.918;2023-04-04T03:36:53;149993.16;;;10.94;100.00
6599;BME280;3335;43.198;27.918;2023-04-04T03:39:26;149998.16;;;10.96;100.00
6599;BME280;3335;43.198;27.918;2023-04-04T03:41:57;149995.66;;;10.95;100.00
6599;BME280;3335;43.198;27.918;2023-04-04T03:44:24;150000.69;;;10.97;100.00
6599;BME280;3335;43.198;27.918;2023-04-04T03:46:51;149998.16;;;10.96;100.00
6599;BME280;3335;43.198;27.918;2023-04-04T03:49:18;150013.16;;;11.02;100.00
6599;BME280;3335;43.198;27.918;2023-04-04T03:51:45;149995.66;;;10.95;100.00
6599;BME280;3335;43.198;27.918;2023-04-04T03:54:13;150010.66;;;11.01;100.00
6599;BME280;3335;43.198;27.918;2023-04-04T03:56:40;150020.66;;;11.05;100.00
6599;BME280;3335;43.198;27.918;2023-04-04T03:59:08;150028.13;;;11.08;100.00
6599;BME280;3335;43.198;27.918;2023-04-04T04:01:35;150011.91;;;11.02;100.00
6599;BME280;3335;43.198;27.918;2023-04-04T04:04:02;150013.16;;;11.02;100.00
6599;BME280;3335;43.198;27.918;2023-04-04T04:06:29;150023.16;;;11.06;100.00
6599;BME280;3335;43.198;27.918;2023-04-04T04:08:56;150018.16;;;11.04;100.00
6599;BME280;3335;43.198;27.918;2023-04-04T04:11:23;150008.16;;;11.00;100.00
6599;BME280;3335;43.198;27.918;2023-04-04T04:13:50;150023.16;;;11.06;100.00
6599;BME280;3335;43.198;27.918;2023-04-04T04:16:18;150023.16;;;11.06;100.00
6599;BME280;3335;43.198;27.918;2023-04-04T04:18:46;150023.16;;;11.06;100.00
6599;BME280;3335;43.198;27.918;2023-04-04T04:21:13;150015.63;;;11.03;100.00
6599;BME280;3335;43.198;27.918;2023-04-04T04:23:40;150031.91;;;11.10;100.00
6599;BME280;3335;43.198;27.918;2023-04-04T04:26:07;150036.91;;;11.12;100.00
6599;BME280;3335;43.198;27.918;2023-04-04T04:28:34;150034.41;;;11.11;100.00
6599;BME280;3335;43.198;27.918;2023-04-04T04:31:04;150040.63;;;11.13;100.00
6599;BME280;3335;43.198;27.918;2023-04-04T04:33:33;150028.13;;;11.08;100.00
6599;BME280;3335;43.198;27.918;2023-04-04T04:36:01;150020.66;;;11.05;100.00
6599;BME280;3335;43.198;27.918;2023-04-04T04:38:28;150013.16;;;11.02;100.00
6599;BME280;3335;43.198;27.918;2023-04-04T04:40:55;149990.63;;;10.93;100.00
6599;BME280;3335;43.198;27.918;2023-04-04T04:43:22;150003.13;;;10.98;100.00
6599;BME280;3335;43.198;27.918;2023-04-04T04:45:49;150005.66;;;10.99;100.00
6599;BME280;3335;43.198;27.918;2023-04-04T04:48:16;150010.66;;;11.01;100.00
6599;BME280;3335;43.198;27.918;2023-04-04T04:50:44;150016.88;;;11.04;100.00
6599;BME280;3335;43.198;27.918;2023-04-04T04:53:11;150015.63;;;11.03;100.00
6599;BME280;3335;43.198;27.918;2023-04-04T04:55:38;150005.66;;;10.99;100.00
6599;BME280;3335;43.198;27.918;2023-04-04T04:58:07;150013.16;;;11.02;100.00
6599;BME280;3335;43.198;27.918;2023-04-04T05:00:35;150033.16;;;11.10;100.00
6599;BME280;3335;43.198;27.918;2023-04-04T05:03:02;150031.91;;;11.10;100.00
6599;BME280;3335;43.198;27.918;2023-04-04T05:05:31;150030.66;;;11.09;100.00
6599;BME280;3335;43.198;27.918;2023-04-04T05:08:00;150048.16;;;11.16;100.00
6599;BME280;3335;43.198;27.918;2023-04-04T05:10:27;150065.63;;;11.23;100.00
6599;BME280;3335;43.198;27.918;2023-04-04T05:12:54;150058.16;;;11.20;100.00
6599;BME280;3335;43.198;27.918;2023-04-04T05:15:21;150039.38;;;11.13;100.00
6599;BME280;3335;43.198;27.918;2023-04-04T05:17:50;150076.88;;;11.28;100.00
6599;BME280;3335;43.198;27.918;2023-04-04T05:20:18;150065.63;;;11.23;100.00
6599;BME280;3335;43.198;27.918;2023-04-04T05:22:45;150053.13;;;11.18;100.00
6599;BME280;3335;43.198;27.918;2023-04-04T05:25:13;150065.63;;;11.23;100.00
6599;BME280;3335;43.198;27.918;2023-04-04T05:27:40;150075.63;;;11.27;100.00
6599;BME280;3335;43.198;27.918;2023-04-04T05:30:08;150058.16;;;11.20;100.00
6599;BME280;3335;43.198;27.918;2023-04-04T05:32:35;150079.38;;;11.29;100.00
6599;BME280;3335;43.198;27.918;2023-04-04T05:35:02;150083.16;;;11.30;100.00
6599;BME280;3335;43.198;27.918;2023-04-04T05:37:29;150100.63;;;11.37;100.00
6599;BME280;3335;43.198;27.918;2023-04-04T05:39:56;150105.66;;;11.39;100.00
6599;BME280;3335;43.198;27.918;2023-04-04T05:42:24;150114.38;;;11.43;100.00
6599;BME280;3335;43.198;27.918;2023-04-04T05:44:51;150126.88;;;11.48;100.00
6599;BME280;3335;43.198;27.918;2023-04-04T05:47:18;150110.63;;;11.41;100.00
6599;BME280;3335;43.198;27.918;2023-04-04T05:49:46;150116.91;;;11.44;100.00
6599;BME280;3335;43.198;27.918;2023-04-04T05:52:13;150116.91;;;11.44;100.00
6599;BME280;3335;43.198;27.918;2023-04-04T05:54:40;150110.63;;;11.41;100.00
6599;BME280;3335;43.198;27.918;2023-04-04T05:57:07;150065.63;;;11.23;100.00
6599;BME280;3335;43.198;27.918;2023-04-04T05:59:35;150104.41;;;11.39;100.00
6599;BME280;3335;43.198;27.918;2023-04-04T06:02:03;150104.41;;;11.39;100.00
6599;BME280;3335;43.198;27.918;2023-04-04T06:04:30;150100.63;;;11.37;100.00
6599;BME280;3335;43.198;27.918;2023-04-04T06:06:57;150090.63;;;11.33;100.00
6599;BME280;3335;43.198;27.918;2023-04-04T06:09:24;150098.13;;;11.36;100.00
6599;BME280;3335;43.198;27.918;2023-04-04T06:11:51;150093.16;;;11.34;100.00
6599;BME280;3335;43.198;27.918;2023-04-04T06:14:18;150093.16;;;11.34;100.00
6599;BME280;3335;43.198;27.918;2023-04-04T06:16:46;150078.13;;;11.28;100.00
6599;BME280;3335;43.198;27.918;2023-04-04T06:19:13;150060.66;;;11.21;100.00
6599;BME280;3335;43.198;27.918;2023-04-04T06:21:40;150076.88;;;11.28;100.00
6599;BME280;3335;43.198;27.918;2023-04-04T06:24:07;150080.66;;;11.29;100.00
6599;BME280;3335;43.198;27.918;2023-04-04T06:26:34;150055.66;;;11.19;100.00
6599;BME280;3335;43.198;27.918;2023-04-04T06:29:02;150065.63;;;11.23;100.00
6599;BME280;3335;43.198;27.918;2023-04-04T06:31:29;150069.41;;;11.25;100.00
6599;BME280;3335;43.198;27.918;2023-04-04T06:33:57;150060.66;;;11.21;100.00
6599;BME280;3335;43.198;27.918;2023-04-04T06:36:25;149858.25;;;10.39;100.00
6599;BME280;3335;43.198;27.918;2023-04-04T06:38:52;150075.63;;;11.27;100.00
6599;BME280;3335;43.198;27.918;2023-04-04T06:41:19;150075.63;;;11.27;100.00
6599;BME280;3335;43.198;27.918;2023-04-04T06:43:46;150085.63;;;11.31;100.00
6599;BME280;3335;43.198;27.918;2023-04-04T06:46:13;150105.66;;;11.39;100.00
6599;BME280;3335;43.198;27.918;2023-04-04T06:48:40;150091.91;;;11.34;100.00
6599;BME280;3335;43.198;27.918;2023-04-04T06:51:09;150105.66;;;11.39;100.00
6599;BME280;3335;43.198;27.918;2023-04-04T06:53:36;150118.16;;;11.45;100.00
6599;BME280;3335;43.198;27.918;2023-04-04T06:56:04;150153.16;;;11.59;100.00
6599;BME280;3335;43.198;27.918;2023-04-04T06:58:31;150173.16;;;11.67;100.00
6599;BME280;3335;43.198;27.918;2023-04-04T07:01:00;150195.69;;;11.76;100.00
6599;BME280;3335;43.198;27.918;2023-04-04T07:03:27;150193.19;;;11.75;100.00
6599;BME280;3335;43.198;27.918;2023-04-04T07:05:53;150208.19;;;11.81;100.00
6599;BME280;3335;43.198;27.918;2023-04-04T07:08:22;150203.19;;;11.79;100.00
6599;BME280;3335;43.198;27.918;2023-04-04T07:10:48;150185.66;;;11.72;100.00
6599;BME280;3335;43.198;27.918;2023-04-04T07:13:15;150183.13;;;11.71;100.00
6599;BME280;3335;43.198;27.918;2023-04-04T07:15:44;150193.19;;;11.75;100.00
6599;BME280;3335;43.198;27.918;2023-04-04T07:18:13;150170.63;;;11.66;100.00
6599;BME280;3335;43.198;27.918;2023-04-04T07:20:40;150160.63;;;11.62;100.00
6599;BME280;3335;43.198;27.918;2023-04-04T07:23:08;150173.16;;;11.67;100.00
6599;BME280;3335;43.198;27.918;2023-04-04T07:25:36;150146.88;;;11.56;100.00
6599;BME280;3335;43.198;27.918;2023-04-04T07:28:04;150159.38;;;11.61;100.00
6599;BME280;3335;43.198;27.918;2023-04-04T07:30:31;150153.16;;;11.59;100.00
6599;BME280;3335;43.198;27.918;2023-04-04T07:32:58;150183.13;;;11.71;100.00
6599;BME280;3335;43.198;27.918;2023-04-04T07:35:25;150139.41;;;11.53;100.00
6599;BME280;3335;43.198;27.918;2023-04-04T07:37:52;150195.69;;;11.76;100.00
6599;BME280;3335;43.198;27.918;2023-04-04T07:40:19;150175.66;;;11.68;100.00
6599;BME280;3335;43.198;27.918;2023-04-04T07:42:48;150183.13;;;11.71;100.00
6599;BME280;3335;43.198;27.918;2023-04-04T07:45:16;150139.41;;;11.53;100.00
6599;BME280;3335;43.198;27.918;2023-04-04T07:47:43;150200.72;;;11.78;100.00
6599;BME280;3335;43.198;27.918;2023-04-04T07:50:10;150193.19;;;11.75;100.00
6599;BME280;3335;43.198;27.918;2023-04-04T07:52:37;150226.94;;;11.89;100.00
6599;BME280;3335;43.198;27.918;2023-04-04T07:55:05;150231.97;;;11.91;100.00
6599;BME280;3335;43.198;27.918;2023-04-04T07:57:32;150210.72;;;11.82;100.00
6599;BME280;3335;43.198;27.918;2023-04-04T08:00:01;150203.19;;;11.79;100.00
6599;BME280;3335;43.198;27.918;2023-04-04T08:02:29;150184.41;;;11.71;100.00
6599;BME280;3335;43.198;27.918;2023-04-04T08:04:56;150149.38;;;11.57;100.00
6599;BME280;3335;43.198;27.918;2023-04-04T08:07:23;150185.66;;;11.72;100.00
6599;BME280;3335;43.198;27.918;2023-04-04T08:09:50;150180.63;;;11.70;100.00
6599;BME280;3335;43.198;27.918;2023-04-04T08:12:17;150183.13;;;11.71;100.00
6599;BME280;3335;43.198;27.918;2023-04-04T08:14:43;150165.66;;;11.64;100.00
6599;BME280;3335;43.198;27.918;2023-04-04T08:17:12;150184.41;;;11.71;100.00
6599;BME280;3335;43.198;27.918;2023-04-04T08:19:43;150190.66;;;11.74;100.00
6599;BME280;3335;43.198;27.918;2023-04-04T08:22:10;150228.19;;;11.89;100.00
6599;BME280;3335;43.198;27.918;2023-04-04T08:24:37;150248.22;;;11.97;100.00
6599;BME280;3335;43.198;27.918;2023-04-04T08:27:03;150255.72;;;12.00;100.00
6599;BME280;3335;43.198;27.918;2023-04-04T08:29:31;150293.25;;;12.15;100.00
6599;BME280;3335;43.198;27.918;2023-04-04T08:31:58;150289.47;;;12.14;100.00
6599;BME280;3335;43.198;27.918;2023-04-04T08:34:26;150295.72;;;12.16;100.00
6599;BME280;3335;43.198;27.918;2023-04-04T08:36:54;150313.25;;;12.23;100.00
6599;BME280;3335;43.198;27.918;2023-04-04T08:39:20;150298.22;;;12.17;100.00
6599;BME280;3335;43.198;27.918;2023-04-04T08:41:50;150355.75;;;12.41;100.00
6599;BME280;3335;43.198;27.918;2023-04-04T08:44:21;150324.50;;;12.28;100.00
6599;BME280;3335;43.198;27.918;2023-04-04T08:46:50;150338.25;;;12.34;100.00
6599;BME280;3335;43.198;27.918;2023-04-04T08:49:17;150310.72;;;12.22;100.00
6599;BME280;3335;43.198;27.918;2023-04-04T08:51:48;150280.72;;;12.10;100.00
6599;BME280;3335;43.198;27.918;2023-04-04T08:54:18;150327.00;;;12.29;100.00
6599;BME280;3335;43.198;27.918;2023-04-04T08:56:46;150330.78;;;12.31;100.00
6599;BME280;3335;43.198;27.918;2023-04-04T08:59:13;150395.81;;;12.57;100.00
6599;BME280;3335;43.198;27.918;2023-04-04T09:01:43;150445.88;;;12.77;100.00
6599;BME280;3335;43.198;27.918;2023-04-04T09:04:10;150473.34;;;12.88;100.00
6599;BME280;3335;43.198;27.918;2023-04-04T09:06:37;150473.34;;;12.88;100.00
6599;BME280;3335;43.198;27.918;2023-04-04T09:09:06;150428.31;;;12.70;100.00
6599;BME280;3335;43.198;27.918;2023-04-04T09:11:34;150425.81;;;12.69;100.00
6599;BME280;3335;43.198;27.918;2023-04-04T09:14:02;150425.81;;;12.69;100.00
6599;BME280;3335;43.198;27.918;2023-04-04T09:16:30;150413.28;;;12.64;100.00
6599;BME280;3335;43.198;27.918;2023-04-04T09:18:56;150403.28;;;12.60;100.00
6599;BME280;3335;43.198;27.918;2023-04-04T09:21:23;150425.81;;;12.69;100.00
6599;BME280;3335;43.198;27.918;2023-04-04T09:23:57;150450.84;;;12.79;100.00
6599;BME280;3335;43.198;27.918;2023-04-04T09:26:26;150458.38;;;12.82;100.00
6599;BME280;3335;43.198;27.918;2023-04-04T09:28:53;150447.13;;;12.78;100.00
6599;BME280;3335;43.198;27.918;2023-04-04T09:31:23;150463.34;;;12.84;100.00
6599;BME280;3335;43.198;27.918;2023-04-04T09:33:50;150443.34;;;12.76;100.00
6599;BME280;3335;43.198;27.918;2023-04-04T09:36:17;150438.31;;;12.74;100.00
6599;BME280;3335;43.198;27.918;2023-04-04T09:38:44;150434.59;;;12.73;100.00
6599;BME280;3335;43.198;27.918;2023-04-04T09:41:14;150423.34;;;12.68;100.00
6599;BME280;3335;43.198;27.918;2023-04-04T09:43:44;150440.84;;;12.75;100.00
6599;BME280;3335;43.198;27.918;2023-04-04T09:46:12;150428.31;;;12.70;100.00
6599;BME280;3335;43.198;27.918;2023-04-04T09:48:47;150423.34;;;12.68;100.00
6599;BME280;3335;43.198;27.918;2023-04-04T09:51:14;150413.28;;;12.64;100.00
6599;BME280;3335;43.198;27.918;2023-04-04T09:53:46;150428.31;;;12.70;100.00
6599;BME280;3335;43.198;27.918;2023-04-04T09:56:13;150443.34;;;12.76;100.00
6599;BME280;3335;43.198;27.918;2023-04-04T09:58:41;150438.31;;;12.74;100.00
6599;BME280;3335;43.198;27.918;2023-04-04T10:01:13;150468.38;;;12.86;100.00
6599;BME280;3335;43.198;27.918;2023-04-04T10:03:40;150479.63;;;12.91;100.00
6599;BME280;3335;43.198;27.918;2023-04-04T10:06:08;150440.84;;;12.75;100.00
6599;BME280;3335;43.198;27.918;2023-04-04T10:08:38;150478.38;;;12.90;100.00
6599;BME280;3335;43.198;27.918;2023-04-04T10:11:05;150495.88;;;12.97;100.00
6599;BME280;3335;43.198;27.918;2023-04-04T10:13:33;150512.16;;;13.04;100.00
6599;BME280;3335;43.198;27.918;2023-04-04T10:16:02;150510.91;;;13.03;100.00
6599;BME280;3335;43.198;27.918;2023-04-04T10:18:33;150528.44;;;13.10;100.00
6599;BME280;3335;43.198;27.918;2023-04-04T10:21:01;150530.97;;;13.11;100.00
6599;BME280;3335;43.198;27.918;2023-04-04T10:23:29;150520.91;;;13.07;100.00
6599;BME280;3335;43.198;27.918;2023-04-04T10:25:57;150515.94;;;13.05;100.00
6599;BME280;3335;43.198;27.918;2023-04-04T10:28:25;150538.50;;;13.14;100.00
6599;BME280;3335;43.198;27.918;2023-04-04T10:31:01;150510.91;;;13.03;100.00
6599;BME280;3335;43.198;27.918;2023-04-04T10:33:37;150568.53;;;13.27;100.00
6599;BME280;3335;43.198;27.918;2023-04-04T10:36:08;150556.00;;;13.22;100.00
6599;BME280;3335;43.198;27.918;2023-04-04T10:38:41;150533.47;;;13.12;100.00
6599;BME280;3335;43.198;27.918;2023-04-04T10:41:10;150558.50;;;13.23;100.00
6599;BME280;3335;43.198;27.918;2023-04-04T10:43:39;150596.09;;;13.38;100.00
6599;BME280;3335;43.198;27.918;2023-04-04T10:46:10;150591.06;;;13.36;100.00
6599;BME280;3335;43.198;27.918;2023-04-04T10:48:41;150463.34;;;12.84;100.00
6599;BME280;3335;43.198;27.918;2023-04-04T10:51:10;150596.09;;;13.38;100.00
6599;BME280;3335;43.198;27.918;2023-04-04T10:53:38;150611.13;;;13.44;100.00
6599;BME280;3335;43.198;27.918;2023-04-04T10:56:06;150470.91;;;12.87;100.00
6599;BME280;3335;43.198;27.918;2023-04-04T10:58:38;150578.53;;;13.31;100.00
6599;BME280;3335;43.198;27.918;2023-04-04T11:01:06;150592.31;;;13.36;100.00
6599;BME280;3335;43.198;27.918;2023-04-04T11:04:15;150591.06;;;13.36;100.00
6599;BME280;3335;43.198;27.918;2023-04-04T11:07:06;150573.56;;;13.29;100.00
6599;BME280;3335;43.198;27.918;2023-04-04T11:09:50;150596.09;;;13.38;100.00
6599;BME280;3335;43.198;27.918;2023-04-04T11:12:20;150546.00;;;13.18;100.00
6599;BME280;3335;43.198;27.918;2023-04-04T11:15:05;150443.34;;;12.76;100.00
6599;BME280;3335;43.198;27.918;2023-04-04T11:17:53;150463.34;;;12.84;100.00
6599;BME280;3335;43.198;27.918;2023-04-04T11:20:23;150418.31;;;12.66;100.00
6599;BME280;3335;43.198;27.918;2023-04-04T11:23:01;150343.25;;;12.36;100.00
6599;BME280;3335;43.198;27.918;2023-04-04T11:25:39;150388.31;;;12.54;100.00
6599;BME280;3335;43.198;27.918;2023-04-04T11:28:14;150420.81;;;12.67;100.00
6599;BME280;3335;43.198;27.918;2023-04-04T11:30:43;150437.06;;;12.73;100.00
6599;BME280;3335;43.198;27.918;2023-04-04T11:33:13;150331.97;;;12.31;100.00
6599;BME280;3335;43.198;27.918;2023-04-04T11:35:57;150458.38;;;12.82;100.00
6599;BME280;3335;43.198;27.918;2023-04-04T11:38:25;150478.38;;;12.90;100.00
6599;BME280;3335;43.198;27.918;2023-04-04T11:40:54;150508.41;;;13.02;100.00
6599;BME280;3335;43.198;27.918;2023-04-04T11:43:22;150536.00;;;13.13;100.00
6599;BME280;3335;43.198;27.918;2023-04-04T11:45:50;150515.94;;;13.05;100.00
6599;BME280;3335;43.198;27.918;2023-04-04T11:48:18;150480.91;;;12.91;100.00
6599;BME280;3335;43.198;27.918;2023-04-04T11:50:47;150546.00;;;13.18;100.00
6599;BME280;3335;43.198;27.918;2023-04-04T11:53:19;150556.00;;;13.22;100.00
6599;BME280;3335;43.198;27.918;2023-04-04T11:55:48;150489.66;;;12.95;100.00
6599;BME280;3335;43.198;27.918;2023-04-04T11:58:16;150581.03;;;13.32;100.00
6599;BME280;3335;43.198;27.918;2023-04-04T12:00:44;150578.53;;;13.31;100.00
6599;BME280;3335;43.198;27.918;2023-04-04T12:03:14;150563.53;;;13.25;100.00
6599;BME280;3335;43.198;27.918;2023-04-04T12:05:43;150546.00;;;13.18;100.00
6599;BME280;3335;43.198;27.918;2023-04-04T12:08:11;150561.03;;;13.24;100.00
6599;BME280;3335;43.198;27.918;2023-04-04T12:10:39;150528.44;;;13.10;100.00
6599;BME280;3335;43.198;27.918;2023-04-04T12:13:09;150651.16;;;13.60;100.00
6599;BME280;3335;43.198;27.918;2023-04-04T12:15:37;150743.81;;;13.97;100.00
6599;BME280;3335;43.198;27.918;2023-04-04T12:18:06;150654.91;;;13.62;100.00
6599;BME280;3335;43.198;27.918;2023-04-04T12:20:36;150593.56;;;13.37;100.00
6599;BME280;3335;43.198;27.918;2023-04-04T12:23:04;150693.75;;;13.77;100.00
6599;BME280;3335;43.198;27.918;2023-04-04T12:25:31;150708.75;;;13.83;100.00
6599;BME280;3335;43.198;27.918;2023-04-04T12:28:02;150730.06;;;13.92;100.00
6599;BME280;3335;43.198;27.918;2023-04-04T12:30:31;150701.25;;;13.80;100.00
6599;BME280;3335;43.198;27.918;2023-04-04T12:32:59;150728.81;;;13.91;100.00
6599;BME280;3335;43.198;27.918;2023-04-04T12:35:26;150661.16;;;13.64;100.00
6599;BME280;3335;43.198;27.918;2023-04-04T12:38:00;150728.81;;;13.91;100.00
6599;BME280;3335;43.198;27.918;2023-04-04T12:40:31;150856.59;;;14.43;100.00
6599;BME280;3335;43.198;27.918;2023-04-04T12:43:00;150846.59;;;14.39;100.00
6599;BME280;3335;43.198;27.918;2023-04-04T12:45:27;150801.41;;;14.21;100.00
6599;BME280;3335;43.198;27.918;2023-04-04T12:47:55;150830.25;;;14.32;100.00
6599;BME280;3335;43.198;27.918;2023-04-04T12:50:23;150901.69;;;14.61;100.00
6599;BME280;3335;43.198;27.918;2023-04-04T12:52:52;150960.59;;;14.85;100.00
6599;BME280;3335;43.198;27.918;2023-04-04T12:55:20;150971.88;;;14.89;100.00
6599;BME280;3335;43.198;27.918;2023-04-04T12:57:49;151001.91;;;15.02;100.00